Thursday, April 24, 2014
16:10 UTC
  |  Log In   |  Register Free
Airport Search:

La Guardia Airport
(KLGA)

FAA data valid effective April 3, 2014 until May 29, 2014 (unless otherwise noted).

 
 
 
 
 
 
 
 
 
 
 
 
 
 

Current Aviation Weather for La Guardia Airport (KLGA)

The most recent METAR observation for KLGA was updated at: 1551 UTC
METAR Summary (Translated METAR)
KLGA
241551Z 31016G27KT 10SM FEW250 12/M09 A2991 RMK AO2 PK WND 32030/1530 SLP128 T01171089
KTEB
(9.6 nm NW from KLGA)
241551Z 33017G32KT 10SM CLR 13/M09 A2991 RMK AO2 PK WND 33032/1545 SLP128 T01331089
TAF Summary (Translated TAF)
KLGA
241434Z 2415/2512 32023G35KT P6SM SKC FM242200 33017G29KT P6SM SKC FM250200 33012G18KT P6SM SKC FM250400 33008KT P6SM SKC
KTEB
(9.6 nm NW from KLGA)
241434Z 2415/2512 32020G30KT P6SM SKC FM242200 33016G23KT P6SM SKC FM250000 33012KT P6SM SKC FM250300 33005KT P6SM SKC
  Airport Weather Conditions for KLGA

 Current Weather at LGA
50° F
Fair and Breezy
Northwest winds at 20.7 mph
LGA NOAA Radar

Pressure: 29.91 in
Humidity: 25%
Wind: from the Northwest at 20.7 gusting to 32.2 MPH (18 gusting to 28 KT)
Dew Point: 15.1°F
Visibility: 10.00 mi


Airport Weather Forecast for KLGA

Translated METAR and TAF for KLGA
Translated METAR for KLGA (1610 UTC 24 April 2014)
found at http://aviationweather.gov/adds/metars/
 
METAR text: KLGA 241551Z 31016G27KT 10SM FEW250 12/M09 A2991 RMK AO2 PK WND 32030/1530 SLP128 T01171089
Conditions at: KLGA (NYC/LA GUARDIA , NY, US) observed 1551 UTC 24 April 2014
Temperature: 11.7°C (53°F)
Dewpoint: -8.9°C (16°F) [RH = 23%]
Pressure (altimeter): 29.91 inches Hg (1013.0 mb)
[Sea-level pressure: 1012.8 mb]
Winds: from the NW (310 degrees) at 18 MPH (16 knots; 8.3 m/s)
gusting to 31 MPH (27 knots; 14.0 m/s)
Visibility: 10 or more miles (16+ km)
Ceiling: at least 12,000 feet AGL
Clouds: few clouds at 25000 feet AGL
Weather: no significant weather observed at this time
Translated TAF for KLGA
Forecast for: KLGA (NYC/LA GUARDIA , NY, US)
TAF Text: KLGA 241434Z 2415/2512 32023G35KT P6SM SKC
Forecast period: 1500 to 2200 UTC 24 April 2014
Forecast type: FROM: standard forecast or significant change
Winds: from the NW (320 degrees) at 26 MPH (23 knots; 12.0 m/s)
gusting to 40 MPH (35 knots; 18.2 m/s)
Visibility: 6 or more miles (10+ km)
Clouds: clear skies
Weather: no significant weather forecast for this period
TAF Text: FM242200 33017G29KT P6SM SKC
Forecast period: 2200 UTC 24 April 2014 to 0200 UTC 25 April 2014
Forecast type: FROM: standard forecast or significant change
Winds: from the NNW (330 degrees) at 20 MPH (17 knots; 8.8 m/s)
gusting to 33 MPH (29 knots; 15.1 m/s)
Visibility: 6 or more miles (10+ km)
Clouds: clear skies
Weather: no significant weather forecast for this period
TAF Text: FM250200 33012G18KT P6SM SKC
Forecast period: 0200 to 0400 UTC 25 April 2014
Forecast type: FROM: standard forecast or significant change
Winds: from the NNW (330 degrees) at 14 MPH (12 knots; 6.2 m/s)
gusting to 21 MPH (18 knots; 9.4 m/s)
Visibility: 6 or more miles (10+ km)
Clouds: clear skies
Weather: no significant weather forecast for this period
TAF Text: FM250400 33008KT P6SM SKC
Forecast period: 0400 to 1200 UTC 25 April 2014
Forecast type: FROM: standard forecast or significant change
Winds: from the NNW (330 degrees) at 9 MPH (8 knots; 4.2 m/s)
Visibility: 6 or more miles (10+ km)
Clouds: clear skies
Weather: no significant weather forecast for this period

Find All Airport Services Find A Hotel Find A Rental Car Find A Golf Course Find A Restaurant $100 Hamburger



FBO's on the Field
FBO Company Facility Photos Services Transportation Aviation Fuel Prices: Prices include tax
Catering Weather Repair Courtesy Rental Type 100LL JetA JetA+ MOGAS 8087
 
Sheltair

This FBO has not yet been rated
FS:Avfuel
Last Updated: Apr-15
Login to update fuel prices
SS:
Contact SheltairMore FBO Information
 
Add another FBO Facility Photos Catering Weather Repair Courtesy Rental Type 100LL JetA JetA+ MOGAS 8087
Services Transportation Aviation Fuel Prices: Prices include tax


GlobalAir.com Airport Resource Center model-print
model-print
model-print
model-print